Time;durP1;ratioP1;P1;durP2;ratioP2;P2;SDS_P1;SDS_P2;PMS_P1;PMS_P2;Temp;Humidity;BMP_temperature;BMP_pressure;BME280_temperature;BME280_humidity;BME280_pressure;Samples;Min_cycle;Max_cycle;Signal;HPM_P1;HPM_P2
2022/04/18 00:00:08;;;;;;;9.63;5.10;;;;;;;;;;5069129;28;20436;-82
2022/04/18 00:02:35;;;;;;;7.53;4.67;;;;;;;;;;5050767;28;20441;-81
2022/04/18 00:05:01;;;;;;;6.53;4.93;;;;;;;;;;5065823;28;20393;-83
2022/04/18 00:07:27;;;;;;;6.17;5.10;;;;;;;;;;5049406;28;20433;-80
2022/04/18 00:09:53;;;;;;;5.27;4.57;;;;;;;;;;5077367;28;20389;-83
2022/04/18 00:12:19;;;;;;;8.27;5.27;;;;;;;;;;5060763;28;20726;-83
2022/04/18 00:14:46;;;;;;;8.93;5.40;;;;;;;;;;5059519;28;20765;-83
2022/04/18 00:17:12;;;;;;;5.70;4.40;;;;;;;;;;5059678;28;20937;-82
2022/04/18 00:19:38;;;;;;;4.80;4.20;;;;;;;;;;5059136;28;20465;-83
2022/04/18 00:22:05;;;;;;;9.23;5.50;;;;;;;;;;5069106;28;20425;-82
2022/04/18 00:24:31;;;;;;;6.57;5.73;;;;;;;;;;5071193;28;20444;-83
2022/04/18 00:26:57;;;;;;;6.10;4.87;;;;;;;;;;5063882;28;20409;-83
2022/04/18 00:29:23;;;;;;;7.73;5.10;;;;;;;;;;5058847;28;20461;-83
2022/04/18 00:31:49;;;;;;;5.80;5.20;;;;;;;;;;5059241;28;20945;-83
2022/04/18 00:34:15;;;;;;;8.47;4.80;;;;;;;;;;5047821;28;20406;-82
2022/04/18 00:36:41;;;;;;;5.40;4.60;;;;;;;;;;5072576;28;20398;-81
2022/04/18 00:39:08;;;;;;;10.37;5.37;;;;;;;;;;5063019;28;20851;-83
2022/04/18 00:41:34;;;;;;;7.20;5.33;;;;;;;;;;5058552;28;20433;-83
2022/04/18 00:44:00;;;;;;;6.13;4.90;;;;;;;;;;5058952;28;20414;-83
2022/04/18 00:46:26;;;;;;;6.23;5.40;;;;;;;;;;5058466;28;20406;-83
2022/04/18 00:48:52;;;;;;;5.60;4.37;;;;;;;;;;5058662;28;20437;-83
2022/04/18 00:51:21;;;;;;;5.20;4.63;;;;;;;;;;5058541;28;20814;-82
2022/04/18 00:53:48;;;;;;;5.90;4.30;;;;;;;;;;5063926;28;20488;-79
2022/04/18 00:56:16;;;;;;;5.90;4.00;;;;;;;;;;5062372;28;20400;-82
2022/04/18 00:58:42;;;;;;;12.80;4.50;;;;;;;;;;5058494;28;20410;-83
2022/04/18 01:01:09;;;;;;;6.40;4.67;;;;;;;;;;5058442;28;20429;-82
2022/04/18 01:03:35;;;;;;;6.00;4.43;;;;;;;;;;5058459;28;20426;-83
2022/04/18 01:06:02;;;;;;;5.53;4.30;;;;;;;;;;5040804;28;20785;-83
2022/04/18 01:08:29;;;;;;;5.00;4.50;;;;;;;;;;5059097;28;20465;-83
2022/04/18 01:10:55;;;;;;;6.40;4.77;;;;;;;;;;5058862;28;20417;-83
2022/04/18 01:13:22;;;;;;;4.27;3.87;;;;;;;;;;5059104;28;20921;-83
2022/04/18 01:15:55;;;;;;;5.80;4.23;;;;;;;;;;5058548;28;20406;-82
2022/04/18 01:18:22;;;;;;;7.03;4.80;;;;;;;;;;5059552;28;20413;-83
2022/04/18 01:20:48;;;;;;;6.70;4.90;;;;;;;;;;5047372;28;20462;-83
2022/04/18 01:23:15;;;;;;;5.50;4.30;;;;;;;;;;5038394;28;20438;-83
2022/04/18 01:31:11;;;;;;;4.83;3.97;;;;;;;;;;5038326;28;20386;-83
2022/04/18 01:33:37;;;;;;;4.87;4.37;;;;;;;;;;5038931;28;20410;-82
2022/04/18 01:36:03;;;;;;;5.47;4.30;;;;;;;;;;5038214;28;20399;-83
2022/04/18 01:38:29;;;;;;;5.27;4.77;;;;;;;;;;5024112;28;20847;-82
2022/04/18 01:40:55;;;;;;;5.27;4.70;;;;;;;;;;5040803;28;20432;-83
2022/04/18 01:43:21;;;;;;;6.60;4.57;;;;;;;;;;5041448;28;20923;-83
2022/04/18 01:45:47;;;;;;;8.90;5.93;;;;;;;;;;5041577;28;20909;-82
2022/04/18 01:48:13;;;;;;;8.77;5.60;;;;;;;;;;5041506;28;20446;-83
2022/04/18 01:50:39;;;;;;;9.50;5.47;;;;;;;;;;5040709;28;20406;-82
2022/04/18 01:53:06;;;;;;;8.37;5.77;;;;;;;;;;5023542;28;20512;-83
2022/04/18 01:55:32;;;;;;;8.27;5.60;;;;;;;;;;5040659;28;20422;-82
2022/04/18 01:57:58;;;;;;;10.80;7.07;;;;;;;;;;5040739;28;20421;-82
2022/04/18 02:00:24;;;;;;;7.77;6.97;;;;;;;;;;5040238;28;20411;-82
2022/04/18 02:02:50;;;;;;;12.77;9.17;;;;;;;;;;5041568;28;20769;-82
2022/04/18 02:05:16;;;;;;;14.43;8.77;;;;;;;;;;5041680;28;20493;-83
2022/04/18 02:07:42;;;;;;;16.07;7.57;;;;;;;;;;5040686;28;20888;-83
2022/04/18 02:10:08;;;;;;;9.00;6.90;;;;;;;;;;5039500;28;20414;-81
2022/04/18 02:12:35;;;;;;;10.23;7.30;;;;;;;;;;5051989;28;20431;-82
2022/04/18 02:15:01;;;;;;;9.40;6.60;;;;;;;;;;5041598;28;20398;-83
2022/04/18 02:17:27;;;;;;;7.57;6.17;;;;;;;;;;5022824;28;20831;-82
2022/04/18 02:19:53;;;;;;;10.43;6.90;;;;;;;;;;5041227;28;20415;-82
2022/04/18 02:22:19;;;;;;;11.77;6.50;;;;;;;;;;5041071;28;20426;-82
2022/04/18 02:24:45;;;;;;;7.30;6.60;;;;;;;;;;5041081;28;20410;-83
2022/04/18 02:27:11;;;;;;;9.03;6.40;;;;;;;;;;5040601;28;20403;-82
2022/04/18 02:29:37;;;;;;;8.63;7.83;;;;;;;;;;5040919;28;20427;-82
2022/04/18 02:34:48;;;;;;;8.00;5.87;;;;;;;;;;5041086;28;20786;-82
2022/04/18 02:37:14;;;;;;;6.60;5.90;;;;;;;;;;5040753;28;20477;-83
2022/04/18 02:39:41;;;;;;;8.53;6.17;;;;;;;;;;5024520;28;20399;-81
2022/04/18 02:42:07;;;;;;;8.30;6.10;;;;;;;;;;5058423;28;20434;-82
2022/04/18 02:44:33;;;;;;;8.00;5.70;;;;;;;;;;5030437;28;20421;-83
2022/04/18 02:46:59;;;;;;;7.63;5.63;;;;;;;;;;5041117;28;20432;-83
2022/04/18 02:49:25;;;;;;;7.90;5.67;;;;;;;;;;5023247;28;20967;-82
2022/04/18 02:51:51;;;;;;;6.00;5.40;;;;;;;;;;5040216;28;20896;-83
2022/04/18 02:54:17;;;;;;;7.40;5.47;;;;;;;;;;5040234;28;20379;-82
2022/04/18 02:56:43;;;;;;;6.70;5.23;;;;;;;;;;5021928;28;20553;-83
2022/04/18 02:59:09;;;;;;;6.30;5.50;;;;;;;;;;5038994;28;20426;-82
2022/04/18 03:01:35;;;;;;;5.87;5.33;;;;;;;;;;5040227;28;20433;-82
2022/04/18 03:04:01;;;;;;;6.73;5.90;;;;;;;;;;5040519;28;20770;-83
2022/04/18 03:06:27;;;;;;;7.63;5.80;;;;;;;;;;5022060;28;20778;-82
2022/04/18 03:08:53;;;;;;;9.07;6.73;;;;;;;;;;5040203;28;20819;-83
2022/04/18 03:11:19;;;;;;;7.20;5.13;;;;;;;;;;5041746;28;20478;-82
2022/04/18 03:13:46;;;;;;;6.90;5.60;;;;;;;;;;5042009;28;20449;-83
2022/04/18 03:16:13;;;;;;;7.63;5.83;;;;;;;;;;5040863;28;20689;-82
2022/04/18 03:18:39;;;;;;;10.53;6.30;;;;;;;;;;5022926;28;20485;-83
2022/04/18 03:21:05;;;;;;;7.93;5.30;;;;;;;;;;5039939;28;20428;-83
2022/04/18 03:23:31;;;;;;;5.90;5.30;;;;;;;;;;5040259;28;20508;-82
2022/04/18 03:25:57;;;;;;;6.43;5.77;;;;;;;;;;5040317;28;20407;-82
2022/04/18 03:28:25;;;;;;;6.00;5.23;;;;;;;;;;5040201;28;20446;-83
2022/04/18 03:30:51;;;;;;;10.70;5.47;;;;;;;;;;5021887;28;20423;-83
2022/04/18 03:33:17;;;;;;;8.97;5.50;;;;;;;;;;5039058;28;20450;-82
2022/04/18 03:39:50;;;;;;;8.33;5.83;;;;;;;;;;5039127;28;20414;-82
2022/04/18 03:41:17;;;;;;;7.87;5.90;;;;;;;;;;5041802;28;20414;-81
2022/04/18 03:43:43;;;;;;;8.90;6.93;;;;;;;;;;5053953;28;20437;-81
2022/04/18 03:46:09;;;;;;;8.30;6.60;;;;;;;;;;5048903;28;20431;-82
2022/04/18 03:48:35;;;;;;;7.43;6.30;;;;;;;;;;5059389;28;20457;-82
2022/04/18 03:51:01;;;;;;;8.47;5.70;;;;;;;;;;5040901;28;20409;-82
2022/04/18 03:53:27;;;;;;;7.60;5.97;;;;;;;;;;5040992;28;20522;-82
2022/04/18 03:55:54;;;;;;;11.27;6.10;;;;;;;;;;5058550;28;20402;-82
2022/04/18 03:58:20;;;;;;;8.07;6.10;;;;;;;;;;5058810;28;20402;-83
2022/04/18 04:00:46;;;;;;;7.40;5.93;;;;;;;;;;5058577;28;20402;-82
2022/04/18 04:03:12;;;;;;;7.53;6.37;;;;;;;;;;5059954;28;20425;-83
2022/04/18 04:05:39;;;;;;;8.33;6.50;;;;;;;;;;5058845;28;20413;-82
2022/04/18 04:08:05;;;;;;;8.13;6.70;;;;;;;;;;5041014;28;20806;-82
2022/04/18 04:10:32;;;;;;;8.40;6.00;;;;;;;;;;5059544;28;20474;-82
2022/04/18 04:12:58;;;;;;;6.40;5.70;;;;;;;;;;5059510;28;20421;-82
2022/04/18 04:15:24;;;;;;;6.90;5.30;;;;;;;;;;5060056;28;20437;-82
2022/04/18 04:17:50;;;;;;;6.37;5.73;;;;;;;;;;5059429;28;20535;-82
2022/04/18 04:20:16;;;;;;;9.00;5.93;;;;;;;;;;5058579;28;20425;-82
2022/04/18 04:22:47;;;;;;;7.87;5.73;;;;;;;;;;5059085;28;20425;-82
2022/04/18 04:25:13;;;;;;;10.67;5.67;;;;;;;;;;5059105;28;20437;-82
2022/04/18 04:27:39;;;;;;;6.93;6.20;;;;;;;;;;5054498;28;20468;-80
2022/04/18 04:30:05;;;;;;;7.20;6.30;;;;;;;;;;5074174;28;20389;-80
2022/04/18 04:32:31;;;;;;;9.53;6.10;;;;;;;;;;5074327;28;20413;-80
2022/04/18 04:34:57;;;;;;;8.57;6.77;;;;;;;;;;5074807;28;20467;-80
2022/04/18 04:37:23;;;;;;;9.47;6.57;;;;;;;;;;5071808;28;20408;-82
2022/04/18 04:39:50;;;;;;;9.57;5.70;;;;;;;;;;5049506;28;20405;-83
2022/04/18 04:42:17;;;;;;;8.83;5.87;;;;;;;;;;5061581;28;20508;-82
2022/04/18 04:44:43;;;;;;;8.77;6.57;;;;;;;;;;5060961;28;20413;-81
2022/04/18 04:47:09;;;;;;;7.37;6.13;;;;;;;;;;5060197;28;20406;-82
2022/04/18 04:49:35;;;;;;;10.23;6.73;;;;;;;;;;5059463;28;20405;-83
2022/04/18 04:52:03;;;;;;;5.73;5.10;;;;;;;;;;5073175;22;20459;-85
2022/04/18 04:54:30;;;;;;;12.37;6.20;;;;;;;;;;5055531;28;20442;-85
2022/04/18 04:56:56;;;;;;;7.50;6.20;;;;;;;;;;5043285;28;20421;-85
2022/04/18 04:59:22;;;;;;;7.40;6.50;;;;;;;;;;5043527;28;20419;-84
2022/04/18 05:01:48;;;;;;;7.87;6.07;;;;;;;;;;5042585;28;20917;-84
2022/04/18 05:04:14;;;;;;;6.60;5.83;;;;;;;;;;5061286;28;20393;-85
2022/04/18 05:06:40;;;;;;;8.47;6.70;;;;;;;;;;5043431;28;20397;-85
2022/04/18 05:09:06;;;;;;;10.50;6.13;;;;;;;;;;5042123;28;20491;-84
2022/04/18 05:11:33;;;;;;;6.57;5.83;;;;;;;;;;5062979;28;20409;-85
2022/04/18 05:13:59;;;;;;;7.73;6.20;;;;;;;;;;5064517;28;20474;-85
2022/04/18 05:16:25;;;;;;;8.37;6.07;;;;;;;;;;5045782;28;20436;-85
2022/04/18 05:18:51;;;;;;;10.00;6.10;;;;;;;;;;5063372;28;20412;-85
2022/04/18 05:21:17;;;;;;;9.17;5.40;;;;;;;;;;5064392;28;20405;-84
2022/04/18 05:23:43;;;;;;;9.40;6.00;;;;;;;;;;5064712;28;20519;-85
2022/04/18 05:26:09;;;;;;;8.33;6.13;;;;;;;;;;5045249;28;20410;-84
2022/04/18 05:28:35;;;;;;;6.17;5.50;;;;;;;;;;5063597;28;20445;-85
2022/04/18 05:31:01;;;;;;;6.83;5.90;;;;;;;;;;5064606;28;20402;-84
2022/04/18 05:33:28;;;;;;;7.67;6.07;;;;;;;;;;5058893;28;20505;-83
2022/04/18 05:35:54;;;;;;;8.60;6.50;;;;;;;;;;5058408;28;20402;-82
2022/04/18 05:38:20;;;;;;;7.77;6.07;;;;;;;;;;5057392;28;20406;-84
2022/04/18 05:40:46;;;;;;;6.90;5.27;;;;;;;;;;5058038;28;20489;-84
2022/04/18 05:43:12;;;;;;;12.70;6.50;;;;;;;;;;5060513;28;20418;-83
2022/04/18 05:45:38;;;;;;;13.07;5.83;;;;;;;;;;5060402;28;20488;-84
2022/04/18 05:48:05;;;;;;;8.70;6.07;;;;;;;;;;5041625;28;20444;-84
2022/04/18 05:50:31;;;;;;;10.13;6.93;;;;;;;;;;5060192;28;20467;-85
2022/04/18 05:52:57;;;;;;;7.53;6.57;;;;;;;;;;5062381;28;20440;-85
2022/04/18 05:55:23;;;;;;;7.37;5.47;;;;;;;;;;5043047;28;20405;-84
2022/04/18 05:57:52;;;;;;;8.17;5.80;;;;;;;;;;5061699;28;20410;-84
2022/04/18 06:00:18;;;;;;;10.03;6.20;;;;;;;;;;5060465;28;20432;-84
2022/04/18 06:02:44;;;;;;;8.07;5.47;;;;;;;;;;5043491;28;20430;-84
2022/04/18 06:05:10;;;;;;;5.90;5.10;;;;;;;;;;5063048;28;20409;-85
2022/04/18 06:07:38;;;;;;;18.87;13.23;;;;;;;;;;5063854;28;20472;-86
2022/04/18 06:10:04;;;;;;;7.00;5.30;;;;;;;;;;5062590;28;20481;-85
2022/04/18 06:12:31;;;;;;;9.60;5.97;;;;;;;;;;5062436;28;20437;-86
2022/04/18 06:14:57;;;;;;;7.47;4.83;;;;;;;;;;5061905;28;20402;-86
2022/04/18 06:17:23;;;;;;;10.13;6.00;;;;;;;;;;5044344;28;20422;-85
2022/04/18 06:19:49;;;;;;;9.10;6.37;;;;;;;;;;5063036;28;20484;-85
2022/04/18 06:22:16;;;;;;;5.70;4.40;;;;;;;;;;5062846;28;20418;-83
2022/04/18 06:24:42;;;;;;;5.60;4.67;;;;;;;;;;5072311;28;20485;-86
2022/04/18 06:27:08;;;;;;;7.50;5.30;;;;;;;;;;5046691;28;20413;-86
2022/04/18 06:29:36;;;;;;;9.40;5.10;;;;;;;;;;5047133;28;20461;-85
2022/04/18 06:32:02;;;;;;;7.37;5.40;;;;;;;;;;5046483;28;20420;-86
2022/04/18 06:34:28;;;;;;;6.90;4.80;;;;;;;;;;5064116;28;20412;-84
2022/04/18 06:36:54;;;;;;;7.37;5.83;;;;;;;;;;5047471;28;20410;-86
2022/04/18 06:39:20;;;;;;;7.07;4.73;;;;;;;;;;5065067;28;20484;-86
2022/04/18 06:41:46;;;;;;;6.00;4.53;;;;;;;;;;5064778;28;20412;-86
2022/04/18 06:44:12;;;;;;;5.10;4.20;;;;;;;;;;5063910;28;20408;-85
2022/04/18 06:46:38;;;;;;;5.70;4.93;;;;;;;;;;5064602;28;20544;-85
2022/04/18 06:49:04;;;;;;;6.70;5.07;;;;;;;;;;5047184;28;20533;-86
2022/04/18 06:51:30;;;;;;;7.50;4.93;;;;;;;;;;5064798;28;20412;-86
2022/04/18 06:53:57;;;;;;;6.53;4.83;;;;;;;;;;5064402;28;20444;-86
2022/04/18 06:59:08;;;;;;;5.40;4.30;;;;;;;;;;5062546;28;20405;-86
2022/04/18 07:01:34;;;;;;;5.10;4.00;;;;;;;;;;5046358;28;20409;-86
2022/04/18 07:04:00;;;;;;;9.83;4.37;;;;;;;;;;5049689;28;20436;-86
2022/04/18 07:06:26;;;;;;;5.93;4.47;;;;;;;;;;5050095;28;20436;-85
2022/04/18 07:08:52;;;;;;;5.10;3.97;;;;;;;;;;5069668;28;20452;-85
2022/04/18 07:11:18;;;;;;;6.50;4.87;;;;;;;;;;5063834;28;20414;-85
2022/04/18 07:13:45;;;;;;;4.60;3.63;;;;;;;;;;5064135;28;20417;-85
2022/04/18 07:16:11;;;;;;;4.63;4.13;;;;;;;;;;5065247;28;20405;-85
2022/04/18 07:18:37;;;;;;;4.40;3.57;;;;;;;;;;5047329;28;20445;-85
2022/04/18 07:21:03;;;;;;;5.50;3.97;;;;;;;;;;5064449;28;20406;-86
2022/04/18 07:23:29;;;;;;;7.40;3.70;;;;;;;;;;5069966;28;20432;-86
2022/04/18 07:25:55;;;;;;;5.60;3.77;;;;;;;;;;5065953;28;20500;-84
2022/04/18 07:28:22;;;;;;;6.30;4.30;;;;;;;;;;5046422;28;20452;-86
2022/04/18 07:30:48;;;;;;;5.83;3.50;;;;;;;;;;5049088;28;20505;-86
2022/04/18 07:33:15;;;;;;;3.10;2.80;;;;;;;;;;5068865;28;20520;-86
2022/04/18 07:35:41;;;;;;;5.87;4.17;;;;;;;;;;5066609;28;20427;-85
2022/04/18 07:40:53;;;;;;;6.20;3.20;;;;;;;;;;5067828;28;20384;-87
2022/04/18 07:43:20;;;;;;;5.30;3.50;;;;;;;;;;5069542;28;20433;-84
2022/04/18 07:45:46;;;;;;;5.50;3.97;;;;;;;;;;5050649;28;20406;-85
2022/04/18 07:48:12;;;;;;;7.03;3.93;;;;;;;;;;5067065;28;20545;-86
2022/04/18 07:53:23;;;;;;;9.67;3.90;;;;;;;;;;5062326;28;20495;-85
2022/04/18 07:55:49;;;;;;;5.40;3.53;;;;;;;;;;5060922;28;20406;-85
2022/04/18 07:58:15;;;;;;;5.83;3.87;;;;;;;;;;5042497;28;20405;-85
2022/04/18 08:00:41;;;;;;;5.27;3.60;;;;;;;;;;5042233;28;20413;-85
2022/04/18 08:03:07;;;;;;;5.23;3.70;;;;;;;;;;5059705;28;20413;-85
2022/04/18 08:05:33;;;;;;;8.03;3.57;;;;;;;;;;5060014;28;20489;-84
2022/04/18 08:07:59;;;;;;;4.90;3.43;;;;;;;;;;5059792;28;20448;-84
2022/04/18 08:10:25;;;;;;;8.37;3.60;;;;;;;;;;5060367;28;20402;-85
2022/04/18 08:12:51;;;;;;;3.97;3.07;;;;;;;;;;5060127;28;20917;-85
2022/04/18 08:15:17;;;;;;;4.13;3.10;;;;;;;;;;5059488;28;20397;-85
2022/04/18 08:17:43;;;;;;;4.20;3.10;;;;;;;;;;5060343;28;20406;-84
2022/04/18 08:20:09;;;;;;;4.93;2.80;;;;;;;;;;5059890;28;20401;-85
2022/04/18 08:22:35;;;;;;;3.67;2.47;;;;;;;;;;5060291;28;20433;-85
2022/04/18 08:25:02;;;;;;;4.50;2.40;;;;;;;;;;5042608;28;20882;-85
2022/04/18 08:27:28;;;;;;;6.20;2.50;;;;;;;;;;5060752;28;20794;-85
2022/04/18 08:29:54;;;;;;;4.20;2.00;;;;;;;;;;5060420;28;20405;-85
2022/04/18 08:32:20;;;;;;;3.07;2.13;;;;;;;;;;5043691;28;20521;-84
2022/04/18 08:34:46;;;;;;;3.70;2.73;;;;;;;;;;5062044;28;20496;-85
2022/04/18 08:37:13;;;;;;;4.63;2.80;;;;;;;;;;5064060;28;20464;-85
2022/04/18 08:39:39;;;;;;;2.93;2.27;;;;;;;;;;5068193;28;20409;-85
2022/04/18 08:42:06;;;;;;;3.10;2.00;;;;;;;;;;5047078;28;20974;-85
2022/04/18 08:44:34;;;;;;;3.03;2.20;;;;;;;;;;5063268;28;20413;-85
2022/04/18 08:47:01;;;;;;;3.30;2.33;;;;;;;;;;5048570;28;20405;-86
2022/04/18 08:54:58;;;;;;;3.40;2.57;;;;;;;;;;5064710;28;20392;-85
2022/04/18 08:57:25;;;;;;;3.87;2.93;;;;;;;;;;5061055;28;20393;-85
2022/04/18 08:59:51;;;;;;;2.93;2.13;;;;;;;;;;5061977;28;20471;-84
2022/04/18 09:02:17;;;;;;;4.10;2.57;;;;;;;;;;5045020;28;20421;-85
2022/04/18 09:04:44;;;;;;;4.80;2.37;;;;;;;;;;5064010;28;20485;-85
2022/04/18 09:07:11;;;;;;;4.83;2.80;;;;;;;;;;5063502;28;20398;-85
2022/04/18 09:09:37;;;;;;;4.40;2.50;;;;;;;;;;5063872;28;20498;-85
2022/04/18 09:12:04;;;;;;;5.23;2.80;;;;;;;;;;5047764;28;20418;-85
2022/04/18 09:14:31;;;;;;;3.20;2.13;;;;;;;;;;5046392;28;20846;-85
2022/04/18 09:16:57;;;;;;;3.40;2.27;;;;;;;;;;5064315;28;20777;-86
2022/04/18 09:19:23;;;;;;;3.60;2.47;;;;;;;;;;5046199;28;20418;-85
2022/04/18 09:21:58;;;;;;;5.87;2.87;;;;;;;;;;5064464;28;20816;-85
2022/04/18 09:24:27;;;;;;;6.30;3.00;;;;;;;;;;5047123;28;20412;-83
2022/04/18 09:26:53;;;;;;;5.87;2.80;;;;;;;;;;5047790;28;20425;-84
2022/04/18 09:29:19;;;;;;;6.63;2.13;;;;;;;;;;5046736;28;20570;-85
2022/04/18 09:31:45;;;;;;;2.83;1.97;;;;;;;;;;5047519;28;20424;-85
2022/04/18 09:34:18;;;;;;;4.13;2.70;;;;;;;;;;5074876;28;20425;-84
2022/04/18 09:36:44;;;;;;;4.73;2.90;;;;;;;;;;5068236;28;20401;-85
2022/04/18 09:39:10;;;;;;;3.00;2.33;;;;;;;;;;5066645;28;20409;-84
2022/04/18 09:41:36;;;;;;;3.37;2.57;;;;;;;;;;5066979;28;20466;-84
2022/04/18 09:44:02;;;;;;;5.67;2.80;;;;;;;;;;5065099;28;20793;-85
2022/04/18 09:46:28;;;;;;;3.03;2.50;;;;;;;;;;5067377;28;20459;-85
2022/04/18 09:49:05;;;;;;;5.90;2.67;;;;;;;;;;5048647;28;20445;-85
2022/04/18 09:51:34;;;;;;;4.33;2.90;;;;;;;;;;5048534;28;20421;-85
2022/04/18 09:54:00;;;;;;;4.50;3.30;;;;;;;;;;5047868;28;20437;-86
2022/04/18 09:56:29;;;;;;;3.60;2.57;;;;;;;;;;5066125;28;20430;-86
2022/04/18 09:58:58;;;;;;;4.40;2.60;;;;;;;;;;5046128;28;20413;-86
2022/04/18 10:01:25;;;;;;;4.00;3.10;;;;;;;;;;5047696;28;20423;-86
2022/04/18 10:03:52;;;;;;;11.50;3.10;;;;;;;;;;5049838;28;20457;-86
2022/04/18 10:06:19;;;;;;;4.60;3.40;;;;;;;;;;5049942;28;20460;-85
2022/04/18 10:08:46;;;;;;;4.57;2.70;;;;;;;;;;5068510;28;20441;-85
2022/04/18 10:11:16;;;;;;;3.20;2.50;;;;;;;;;;5068309;28;20769;-86
2022/04/18 10:13:42;;;;;;;3.30;2.43;;;;;;;;;;5067526;28;20410;-86
2022/04/18 10:16:08;;;;;;;3.90;2.60;;;;;;;;;;5066423;28;20394;-86
2022/04/18 10:18:38;;;;;;;3.60;2.80;;;;;;;;;;5066684;28;20398;-86
2022/04/18 10:21:07;;;;;;;4.23;2.40;;;;;;;;;;5065483;28;20409;-85
2022/04/18 10:23:33;;;;;;;4.20;3.10;;;;;;;;;;5066620;28;20427;-85
2022/04/18 10:26:19;;;;;;;2.90;2.40;;;;;;;;;;5065194;28;20429;-86
2022/04/18 10:28:46;;;;;;;5.33;2.60;;;;;;;;;;5047130;28;20453;-85
2022/04/18 10:31:20;;;;;;;4.70;3.23;;;;;;;;;;5064410;28;20417;-86
2022/04/18 10:33:46;;;;;;;3.13;2.80;;;;;;;;;;5063639;28;20463;-86
2022/04/18 10:36:13;;;;;;;7.50;3.40;;;;;;;;;;5062879;28;20432;-86
2022/04/18 10:38:44;;;;;;;3.80;2.70;;;;;;;;;;5045401;28;20475;-86
2022/04/18 10:41:28;;;;;;;3.57;2.90;;;;;;;;;;5062403;28;20457;-86
2022/04/18 10:43:54;;;;;;;6.17;3.20;;;;;;;;;;5062846;28;20460;-85
2022/04/18 10:46:21;;;;;;;3.57;2.50;;;;;;;;;;5063713;28;20398;-86
2022/04/18 10:49:00;;;;;;;6.73;3.20;;;;;;;;;;5063636;28;20469;-85
2022/04/18 10:51:27;;;;;;;3.30;2.50;;;;;;;;;;5063201;28;20410;-85
2022/04/18 10:54:05;;;;;;;5.43;3.20;;;;;;;;;;5069250;22;20585;-83
2022/04/18 10:56:46;;;;;;;4.43;3.00;;;;;;;;;;5050076;28;20425;-83
2022/04/18 10:59:13;;;;;;;3.50;2.80;;;;;;;;;;5061821;28;20458;-83
2022/04/18 11:01:39;;;;;;;3.47;2.40;;;;;;;;;;5060960;28;20457;-83
2022/04/18 11:04:09;;;;;;;6.83;2.80;;;;;;;;;;5061068;28;20438;-83
2022/04/18 11:06:39;;;;;;;3.83;2.90;;;;;;;;;;5065037;28;20390;-83
2022/04/18 11:09:10;;;;;;;5.80;3.10;;;;;;;;;;5062969;28;20440;-81
2022/04/18 11:11:55;;;;;;;3.30;2.13;;;;;;;;;;5078525;28;20883;-83
2022/04/18 11:14:22;;;;;;;4.03;2.70;;;;;;;;;;5064026;28;20421;-83
2022/04/18 11:16:50;;;;;;;4.80;2.93;;;;;;;;;;5061578;28;20978;-83
2022/04/18 11:19:16;;;;;;;4.57;2.70;;;;;;;;;;5062585;28;20397;-83
2022/04/18 11:24:37;;;;;;;3.70;2.80;;;;;;;;;;5061711;28;20929;-80
2022/04/18 11:27:06;;;;;;;4.03;2.70;;;;;;;;;;5071850;28;20405;-82
2022/04/18 11:29:33;;;;;;;5.70;2.73;;;;;;;;;;5071146;28;20445;-80
2022/04/18 11:31:59;;;;;;;4.30;2.60;;;;;;;;;;5072394;28;20428;-81
2022/04/18 11:34:29;;;;;;;3.10;2.20;;;;;;;;;;5069951;28;20520;-83
2022/04/18 11:36:56;;;;;;;2.97;2.30;;;;;;;;;;5061233;28;20885;-81
2022/04/18 11:39:22;;;;;;;3.20;2.60;;;;;;;;;;5059956;28;20890;-82
2022/04/18 11:41:48;;;;;;;3.57;2.80;;;;;;;;;;5060564;28;20405;-82
2022/04/18 11:44:20;;;;;;;3.80;2.40;;;;;;;;;;5063234;28;20425;-82
2022/04/18 11:46:47;;;;;;;3.43;2.80;;;;;;;;;;5068686;28;20409;-80
2022/04/18 11:49:13;;;;;;;4.00;2.60;;;;;;;;;;5067725;28;20441;-82
2022/04/18 11:51:40;;;;;;;3.30;2.70;;;;;;;;;;5063616;28;20951;-81
2022/04/18 11:54:06;;;;;;;4.73;2.33;;;;;;;;;;5059551;28;20457;-82
2022/04/18 11:56:32;;;;;;;4.50;2.70;;;;;;;;;;5059283;28;20425;-82
2022/04/18 11:59:03;;;;;;;4.10;3.20;;;;;;;;;;5060721;28;20449;-82
2022/04/18 12:07:00;;;;;;;3.93;3.10;;;;;;;;;;5061548;28;20425;-82
2022/04/18 12:09:26;;;;;;;3.77;2.30;;;;;;;;;;5060188;28;20492;-82
2022/04/18 12:11:52;;;;;;;3.40;2.33;;;;;;;;;;5060805;28;20402;-82
2022/04/18 12:14:20;;;;;;;3.30;2.63;;;;;;;;;;5060021;28;20421;-83
2022/04/18 12:16:46;;;;;;;3.53;2.40;;;;;;;;;;5059128;28;20484;-83
2022/04/18 12:19:15;;;;;;;4.40;2.43;;;;;;;;;;5060530;28;20405;-82
2022/04/18 12:21:41;;;;;;;3.80;2.33;;;;;;;;;;5059440;28;20762;-82
2022/04/18 12:24:10;;;;;;;3.20;2.07;;;;;;;;;;5059951;28;20456;-81
2022/04/18 12:26:38;;;;;;;5.13;2.70;;;;;;;;;;5059955;28;20777;-82
2022/04/18 12:29:06;;;;;;;3.40;2.17;;;;;;;;;;5059585;28;20475;-82
2022/04/18 12:31:32;;;;;;;3.70;2.07;;;;;;;;;;5059857;28;20430;-82
2022/04/18 12:33:58;;;;;;;3.70;2.50;;;;;;;;;;5060017;28;20421;-82
2022/04/18 12:36:33;;;;;;;3.57;2.07;;;;;;;;;;5060441;28;20479;-83
2022/04/18 12:38:59;;;;;;;3.60;1.90;;;;;;;;;;5058792;28;20961;-82
2022/04/18 12:41:32;;;;;;;3.20;1.57;;;;;;;;;;5059664;28;20455;-84
2022/04/18 12:43:59;;;;;;;2.77;1.70;;;;;;;;;;5059286;28;20433;-83
2022/04/18 12:46:26;;;;;;;3.10;1.70;;;;;;;;;;5059612;28;20398;-84
2022/04/18 12:48:52;;;;;;;3.20;1.93;;;;;;;;;;5059381;28;20441;-79
2022/04/18 12:51:29;;;;;;;3.40;1.70;;;;;;;;;;5058196;28;20559;-82
2022/04/18 12:53:55;;;;;;;7.43;2.80;;;;;;;;;;5066702;28;20452;-79
2022/04/18 12:56:23;;;;;;;2.00;1.70;;;;;;;;;;5069379;28;20405;-81
2022/04/18 12:58:50;;;;;;;5.00;1.83;;;;;;;;;;5061687;28;20901;-82
2022/04/18 13:01:23;;;;;;;2.57;1.47;;;;;;;;;;5062258;28;20425;-82
2022/04/18 13:03:51;;;;;;;3.17;2.03;;;;;;;;;;5060750;28;20499;-82
2022/04/18 13:06:27;;;;;;;3.40;2.00;;;;;;;;;;5060605;28;20454;-82
2022/04/18 13:09:19;;;;;;;6.07;2.20;;;;;;;;;;5059302;28;20502;-82
2022/04/18 13:11:46;;;;;;;3.47;1.90;;;;;;;;;;5056353;28;20436;-82
2022/04/18 13:14:13;;;;;;;2.40;1.73;;;;;;;;;;5059570;28;20436;-81
2022/04/18 13:16:40;;;;;;;2.57;1.70;;;;;;;;;;5059493;28;20398;-82
2022/04/18 13:19:07;;;;;;;3.53;2.10;;;;;;;;;;5060207;28;20449;-81
2022/04/18 13:21:33;;;;;;;3.10;1.53;;;;;;;;;;5059096;28;20410;-82
2022/04/18 13:24:00;;;;;;;3.20;1.87;;;;;;;;;;5059641;28;20421;-82
2022/04/18 13:26:30;;;;;;;2.57;1.70;;;;;;;;;;5058955;28;20420;-82
2022/04/18 13:28:56;;;;;;;3.03;2.00;;;;;;;;;;5060363;28;20441;-81
2022/04/18 13:31:23;;;;;;;4.03;2.00;;;;;;;;;;5064294;28;20409;-81
2022/04/18 13:33:49;;;;;;;4.70;2.00;;;;;;;;;;5067182;28;20425;-81
2022/04/18 13:36:33;;;;;;;3.20;1.70;;;;;;;;;;5065213;28;20394;-84
2022/04/18 13:38:59;;;;;;;3.60;1.90;;;;;;;;;;5063106;28;20382;-83
2022/04/18 13:41:26;;;;;;;2.80;1.90;;;;;;;;;;5062527;28;20408;-83
2022/04/18 13:43:52;;;;;;;5.13;2.27;;;;;;;;;;5062272;28;20808;-83
2022/04/18 13:46:18;;;;;;;2.57;1.90;;;;;;;;;;5062510;28;20431;-83
2022/04/18 13:48:48;;;;;;;3.20;1.97;;;;;;;;;;5062552;28;20438;-83
2022/04/18 13:51:15;;;;;;;3.80;2.07;;;;;;;;;;5062802;28;20405;-82
2022/04/18 13:53:41;;;;;;;4.43;2.03;;;;;;;;;;5062248;28;20498;-83
2022/04/18 13:56:07;;;;;;;4.50;1.93;;;;;;;;;;5061955;28;20914;-81
2022/04/18 13:58:33;;;;;;;3.33;1.97;;;;;;;;;;5062785;28;20455;-82
2022/04/18 14:01:00;;;;;;;2.90;1.90;;;;;;;;;;5061412;28;20937;-82
2022/04/18 14:03:26;;;;;;;2.93;1.90;;;;;;;;;;5062193;28;20482;-83
2022/04/18 14:05:53;;;;;;;4.10;2.00;;;;;;;;;;5062841;28;20504;-82
2022/04/18 14:08:19;;;;;;;2.13;1.60;;;;;;;;;;5062713;28;20530;-83
2022/04/18 14:10:46;;;;;;;5.50;2.30;;;;;;;;;;5062526;28;20980;-80
2022/04/18 14:13:12;;;;;;;2.40;1.80;;;;;;;;;;5078082;28;20429;-80
2022/04/18 14:21:07;;;;;;;6.20;2.50;;;;;;;;;;5062031;28;20421;-83
2022/04/18 14:23:33;;;;;;;3.67;2.07;;;;;;;;;;5062669;28;20418;-83
2022/04/18 14:25:59;;;;;;;5.20;1.97;;;;;;;;;;5061833;28;20409;-83
2022/04/18 14:28:25;;;;;;;3.90;2.17;;;;;;;;;;5061796;28;20983;-83
2022/04/18 14:30:51;;;;;;;3.57;2.10;;;;;;;;;;5061995;28;20778;-83
2022/04/18 14:33:17;;;;;;;3.40;1.60;;;;;;;;;;5061862;28;20421;-82
2022/04/18 14:35:43;;;;;;;3.87;2.23;;;;;;;;;;5072606;28;20477;-81
2022/04/18 14:38:10;;;;;;;3.30;2.33;;;;;;;;;;5068902;28;20467;-83
2022/04/18 14:40:36;;;;;;;3.83;2.23;;;;;;;;;;5062922;28;20408;-83
2022/04/18 14:43:04;;;;;;;2.50;1.80;;;;;;;;;;5062078;28;20421;-83
2022/04/18 14:45:30;;;;;;;3.60;2.17;;;;;;;;;;5062104;28;20924;-83
2022/04/18 14:47:56;;;;;;;4.20;2.47;;;;;;;;;;5061649;28;20441;-83
2022/04/18 14:50:22;;;;;;;2.87;1.93;;;;;;;;;;5062296;28;20489;-83
2022/04/18 14:52:48;;;;;;;5.07;2.17;;;;;;;;;;5061789;28;20433;-83
2022/04/18 14:55:14;;;;;;;2.70;2.13;;;;;;;;;;5061109;28;20496;-83
2022/04/18 14:57:40;;;;;;;5.50;2.50;;;;;;;;;;5061543;28;20409;-83
2022/04/18 15:00:06;;;;;;;5.80;2.23;;;;;;;;;;5061428;28;20425;-82
2022/04/18 15:02:32;;;;;;;3.07;2.17;;;;;;;;;;5062090;28;20842;-83
2022/04/18 15:04:58;;;;;;;2.37;1.70;;;;;;;;;;5061205;28;20456;-83
2022/04/18 15:07:24;;;;;;;3.37;1.80;;;;;;;;;;5061817;28;20402;-82
2022/04/18 15:09:50;;;;;;;3.50;1.97;;;;;;;;;;5061708;28;20536;-83
2022/04/18 15:12:16;;;;;;;2.87;1.80;;;;;;;;;;5061185;28;20508;-82
2022/04/18 15:14:42;;;;;;;3.30;2.13;;;;;;;;;;5061445;28;20418;-82
2022/04/18 15:17:08;;;;;;;3.50;2.00;;;;;;;;;;5062340;28;20882;-82
2022/04/18 15:19:35;;;;;;;3.60;2.27;;;;;;;;;;5061842;28;20417;-82